createdAt,value
2023-03-22T00:00:29.027Z,998.52
2023-03-22T00:01:29.035Z,998.57
2023-03-22T00:02:29.056Z,998.62
2023-03-22T00:03:29.041Z,998.57
2023-03-22T00:04:28.982Z,998.58
2023-03-22T00:05:28.967Z,998.58
2023-03-22T00:06:28.956Z,998.57
2023-03-22T00:07:28.947Z,998.55
2023-03-22T00:08:28.936Z,998.47
2023-03-22T00:09:28.914Z,998.52
2023-03-22T00:10:28.895Z,998.47
2023-03-22T00:11:28.888Z,998.45
2023-03-22T00:12:28.886Z,998.40
2023-03-22T00:13:28.864Z,998.43
2023-03-22T00:14:28.857Z,998.45
2023-03-22T00:15:28.832Z,998.50
2023-03-22T00:16:28.923Z,998.52
2023-03-22T00:17:28.833Z,998.55
2023-03-22T00:18:28.799Z,998.56
2023-03-22T00:19:28.787Z,998.55
2023-03-22T00:20:28.761Z,998.50
2023-03-22T00:21:28.776Z,998.46
2023-03-22T00:22:28.754Z,998.46
2023-03-22T00:23:28.749Z,998.46
2023-03-22T00:24:28.713Z,998.46
2023-03-22T00:25:28.711Z,998.42
2023-03-22T00:26:28.693Z,998.39
2023-03-22T00:27:28.699Z,998.44
2023-03-22T00:28:28.665Z,998.45
2023-03-22T00:29:28.642Z,998.42
2023-03-22T00:30:28.644Z,998.43
2023-03-22T00:31:28.675Z,998.46
2023-03-22T00:32:28.607Z,998.38
2023-03-22T00:33:28.602Z,998.39
2023-03-22T00:34:28.573Z,998.37
2023-03-22T00:35:28.631Z,998.34
2023-03-22T00:36:28.567Z,998.32
2023-03-22T00:37:28.554Z,998.35
2023-03-22T00:38:41.458Z,998.35
2023-03-22T00:39:29.512Z,998.36
2023-03-22T00:40:28.505Z,998.41
2023-03-22T00:41:28.496Z,998.33
2023-03-22T00:42:28.485Z,998.30
2023-03-22T00:43:28.494Z,998.34
2023-03-22T00:44:28.443Z,998.37
2023-03-22T00:45:28.439Z,998.37
2023-03-22T00:46:28.488Z,998.36
2023-03-22T00:47:28.423Z,998.39
2023-03-22T00:48:28.400Z,998.34
2023-03-22T00:49:28.387Z,998.32
2023-03-22T00:50:28.396Z,998.31
2023-03-22T00:51:28.402Z,998.30
2023-03-22T00:52:28.365Z,998.30
2023-03-22T00:53:28.326Z,998.30
2023-03-22T00:54:28.314Z,998.29
2023-03-22T00:55:28.293Z,998.26
2023-03-22T00:56:28.281Z,998.22
2023-03-22T00:57:28.294Z,998.22
2023-03-22T00:58:28.252Z,998.22
2023-03-22T00:59:28.258Z,998.22
2023-03-22T01:00:28.253Z,998.25
2023-03-22T01:01:28.292Z,998.22
2023-03-22T01:02:28.243Z,998.23
2023-03-22T01:03:28.224Z,998.23
2023-03-22T01:04:28.176Z,998.23
2023-03-22T01:05:28.163Z,998.25
2023-03-22T01:06:28.144Z,998.27
2023-03-22T01:07:28.173Z,998.25
2023-03-22T01:08:28.120Z,998.25
2023-03-22T01:09:28.131Z,998.22
2023-03-22T01:10:28.102Z,998.25
2023-03-22T01:11:28.093Z,998.26
2023-03-22T01:12:28.088Z,998.23
2023-03-22T01:13:28.065Z,998.29
2023-03-22T01:14:28.038Z,998.25
2023-03-22T01:15:28.051Z,998.21
2023-03-22T01:16:28.072Z,998.28
2023-03-22T01:17:28.010Z,998.29
2023-03-22T01:18:28.009Z,998.26
2023-03-22T01:19:27.988Z,998.29
2023-03-22T01:20:27.959Z,998.26
2023-03-22T01:21:27.958Z,998.22
2023-03-22T01:22:27.954Z,998.23
2023-03-22T01:23:27.923Z,998.23
2023-03-22T01:24:27.897Z,998.15
2023-03-22T01:25:27.889Z,998.17
2023-03-22T01:26:27.873Z,998.21
2023-03-22T01:27:27.878Z,998.19
2023-03-22T01:28:27.963Z,998.17
2023-03-22T01:29:27.859Z,998.23
2023-03-22T01:30:27.883Z,998.22
2023-03-22T01:31:27.818Z,998.19
2023-03-22T01:32:27.844Z,998.19
2023-03-22T01:33:27.792Z,998.13
2023-03-22T01:34:27.813Z,998.12
2023-03-22T01:35:27.888Z,998.10
2023-03-22T01:36:27.762Z,998.11
2023-03-22T01:37:27.754Z,998.13
2023-03-22T01:38:27.722Z,998.13
2023-03-22T01:39:27.707Z,998.07
2023-03-22T01:40:27.688Z,998.09
2023-03-22T01:41:27.687Z,998.09
2023-03-22T01:42:27.681Z,998.06
2023-03-22T01:43:27.659Z,998.06
2023-03-22T01:44:27.652Z,998.02
2023-03-22T01:45:27.633Z,997.95
2023-03-22T01:46:27.642Z,997.90
2023-03-22T01:47:27.615Z,997.88
2023-03-22T01:48:27.620Z,997.90
2023-03-22T01:49:27.593Z,997.86
2023-03-22T01:50:27.559Z,997.86
2023-03-22T01:51:27.568Z,997.81
2023-03-22T01:52:27.542Z,997.83
2023-03-22T01:53:27.514Z,997.81
2023-03-22T01:54:27.510Z,997.83
2023-03-22T01:55:27.508Z,997.84
2023-03-22T01:56:27.499Z,997.84
2023-03-22T01:57:27.485Z,997.85
2023-03-22T01:58:27.452Z,997.81
2023-03-22T01:59:27.445Z,997.82
2023-03-22T02:00:27.423Z,997.82
2023-03-22T02:01:27.490Z,997.87
2023-03-22T02:02:27.405Z,997.83
2023-03-22T02:03:27.386Z,997.86
2023-03-22T02:04:27.381Z,997.87
2023-03-22T02:05:27.369Z,997.86
2023-03-22T02:06:27.341Z,997.85
2023-03-22T02:07:27.419Z,997.84
2023-03-22T02:08:27.312Z,997.81
2023-03-22T02:09:27.348Z,997.81
2023-03-22T02:10:27.298Z,997.81
2023-03-22T02:11:27.292Z,997.76
2023-03-22T02:12:27.269Z,997.78
2023-03-22T02:13:27.269Z,997.81
2023-03-22T02:14:27.526Z,997.77
2023-03-22T02:15:27.229Z,997.76
2023-03-22T02:16:27.228Z,997.74
2023-03-22T02:17:27.236Z,997.72
2023-03-22T02:18:27.176Z,997.69
2023-03-22T02:19:27.169Z,997.71
2023-03-22T02:20:27.158Z,997.72
2023-03-22T02:21:27.185Z,997.79
2023-03-22T02:22:27.140Z,997.72
2023-03-22T02:23:27.137Z,997.73
2023-03-22T02:24:27.097Z,997.75
2023-03-22T02:25:27.096Z,997.73
2023-03-22T02:26:27.069Z,997.71
2023-03-22T02:27:27.118Z,997.73
2023-03-22T02:28:27.048Z,997.67
2023-03-22T02:29:27.063Z,997.70
2023-03-22T02:30:27.026Z,997.70
2023-03-22T02:31:27.057Z,997.66
2023-03-22T02:32:27.046Z,997.65
2023-03-22T02:33:26.984Z,997.61
2023-03-22T02:34:26.974Z,997.58
2023-03-22T02:35:27.019Z,997.57
2023-03-22T02:36:26.943Z,997.58
2023-03-22T02:37:26.946Z,997.56
2023-03-22T02:38:26.912Z,997.58
2023-03-22T02:39:26.917Z,997.54
2023-03-22T02:40:26.887Z,997.54
2023-03-22T02:41:26.879Z,997.54
2023-03-22T02:42:26.866Z,997.53
2023-03-22T02:43:26.865Z,997.53
2023-03-22T02:44:26.836Z,997.53
2023-03-22T02:45:26.857Z,997.54
2023-03-22T02:46:26.862Z,997.50
2023-03-22T02:47:26.814Z,997.54
2023-03-22T02:48:26.843Z,997.51
2023-03-22T02:49:26.775Z,997.57
2023-03-22T02:50:26.773Z,997.60
2023-03-22T02:51:26.755Z,997.53
2023-03-22T02:52:26.743Z,997.59
2023-03-22T02:53:26.723Z,997.59
2023-03-22T02:54:26.705Z,997.59
2023-03-22T02:55:26.697Z,997.61
2023-03-22T02:56:26.693Z,997.58
2023-03-22T02:57:26.672Z,997.59
2023-03-22T02:58:26.705Z,997.65
2023-03-22T02:59:26.638Z,997.63
2023-03-22T03:00:26.611Z,997.62
2023-03-22T03:01:26.610Z,997.67
2023-03-22T03:02:26.682Z,997.71
2023-03-22T03:03:26.603Z,997.69
2023-03-22T03:04:26.579Z,997.72
2023-03-22T03:05:26.556Z,997.68
2023-03-22T03:06:26.577Z,997.73
2023-03-22T03:07:26.542Z,997.74
2023-03-22T03:08:26.552Z,997.72
2023-03-22T03:09:26.510Z,997.78
2023-03-22T03:10:26.485Z,997.73
2023-03-22T03:11:26.480Z,997.69
2023-03-22T03:12:26.470Z,997.63
2023-03-22T03:13:26.439Z,997.72
2023-03-22T03:14:26.498Z,997.73
2023-03-22T03:15:26.420Z,997.72
2023-03-22T03:16:26.462Z,997.68
2023-03-22T03:17:26.401Z,997.73
2023-03-22T03:18:26.383Z,997.66
2023-03-22T03:19:26.371Z,997.69
2023-03-22T03:20:26.369Z,997.76
2023-03-22T03:21:26.360Z,997.78
2023-03-22T03:22:26.361Z,997.72
2023-03-22T03:23:26.320Z,997.78
2023-03-22T03:24:26.318Z,997.76
2023-03-22T03:25:26.303Z,997.75
2023-03-22T03:26:26.293Z,997.78
2023-03-22T03:27:26.279Z,997.73
2023-03-22T03:28:26.259Z,997.79
2023-03-22T03:29:26.227Z,997.71
2023-03-22T03:30:26.247Z,997.73
2023-03-22T03:31:26.374Z,997.73
2023-03-22T03:32:26.199Z,997.65
2023-03-22T03:33:26.195Z,997.72
2023-03-22T03:34:26.167Z,997.68
2023-03-22T03:35:26.179Z,997.71
2023-03-22T03:36:26.148Z,997.66
2023-03-22T03:37:26.157Z,997.66
2023-03-22T03:38:26.120Z,997.66
2023-03-22T03:39:26.110Z,997.75
2023-03-22T03:40:26.114Z,997.76
2023-03-22T03:41:26.069Z,997.74
2023-03-22T03:42:26.092Z,997.73
2023-03-22T03:43:26.049Z,997.72
2023-03-22T03:44:26.028Z,997.76
2023-03-22T03:45:26.134Z,997.81
2023-03-22T03:46:26.026Z,997.78
2023-03-22T03:47:26.033Z,997.77
2023-03-22T03:48:26.075Z,997.79
2023-03-22T03:49:25.972Z,997.77
2023-03-22T03:50:25.975Z,997.79
2023-03-22T03:51:25.948Z,997.78
2023-03-22T03:52:25.958Z,997.73
2023-03-22T03:53:25.932Z,997.77
2023-03-22T03:54:26.014Z,997.76
2023-03-22T03:55:25.907Z,997.75
2023-03-22T03:56:25.897Z,997.73
2023-03-22T03:57:25.881Z,997.73
2023-03-22T03:58:25.869Z,997.74
2023-03-22T03:59:25.872Z,997.79
2023-03-22T04:00:25.858Z,997.75
2023-03-22T04:01:25.809Z,997.70
2023-03-22T04:02:25.932Z,997.70
2023-03-22T04:03:25.783Z,997.71
2023-03-22T04:04:25.856Z,997.70
2023-03-22T04:05:25.759Z,997.72
2023-03-22T04:06:25.755Z,997.75
2023-03-22T04:07:25.745Z,997.72
2023-03-22T04:08:25.729Z,997.68
2023-03-22T04:09:25.708Z,997.71
2023-03-22T04:10:25.698Z,997.70
2023-03-22T04:11:25.691Z,997.74
2023-03-22T04:12:25.686Z,997.72
2023-03-22T04:13:25.663Z,997.71
2023-03-22T04:14:25.662Z,997.72
2023-03-22T04:15:25.629Z,997.70
2023-03-22T04:16:25.647Z,997.73
2023-03-22T04:17:25.635Z,997.66
2023-03-22T04:18:25.595Z,997.64
2023-03-22T04:19:25.578Z,997.72
2023-03-22T04:20:25.570Z,997.70
2023-03-22T04:21:25.553Z,997.70
2023-03-22T04:22:25.564Z,997.74
2023-03-22T04:23:25.547Z,997.66
2023-03-22T04:24:25.538Z,997.71
2023-03-22T04:25:25.487Z,997.68
2023-03-22T04:26:26.716Z,997.71
2023-03-22T04:27:25.484Z,997.67
2023-03-22T04:28:25.466Z,997.64
2023-03-22T04:29:25.436Z,997.62
2023-03-22T04:30:25.428Z,997.55
2023-03-22T04:31:25.481Z,997.51
2023-03-22T04:32:25.437Z,997.51
2023-03-22T04:33:25.393Z,997.50
2023-03-22T04:34:25.387Z,997.51
2023-03-22T04:35:25.379Z,997.47
2023-03-22T04:36:25.341Z,997.44
2023-03-22T04:37:25.335Z,997.34
2023-03-22T04:38:25.359Z,997.36
2023-03-22T04:39:25.319Z,997.34
2023-03-22T04:40:25.305Z,997.30
2023-03-22T04:41:25.292Z,997.31
2023-03-22T04:42:25.330Z,997.35
2023-03-22T04:43:25.273Z,997.31
2023-03-22T04:44:25.233Z,997.28
2023-03-22T04:45:25.236Z,997.24
2023-03-22T04:46:25.311Z,997.28
2023-03-22T04:47:25.204Z,997.27
2023-03-22T04:48:25.193Z,997.28
2023-03-22T04:49:25.172Z,997.32
2023-03-22T04:50:25.174Z,997.35
2023-03-22T04:51:25.135Z,997.35
2023-03-22T04:52:25.145Z,997.35
2023-03-22T04:53:25.113Z,997.42
2023-03-22T04:54:25.119Z,997.45
2023-03-22T04:55:25.092Z,997.43
2023-03-22T04:56:25.150Z,997.45
2023-03-22T04:57:25.077Z,997.41
2023-03-22T04:58:25.054Z,997.39
2023-03-22T04:59:25.078Z,997.35
2023-03-22T05:00:25.032Z,997.34
2023-03-22T05:01:25.120Z,997.33
2023-03-22T05:02:25.053Z,997.37
2023-03-22T05:03:24.993Z,997.31
2023-03-22T05:04:24.970Z,997.30
2023-03-22T05:05:24.975Z,997.33
2023-03-22T05:06:24.952Z,997.30
2023-03-22T05:07:24.951Z,997.29
2023-03-22T05:08:24.959Z,997.28
2023-03-22T05:09:24.900Z,997.32
2023-03-22T05:10:24.904Z,997.28
2023-03-22T05:11:24.880Z,997.25
2023-03-22T05:12:24.875Z,997.23
2023-03-22T05:13:24.868Z,997.26
2023-03-22T05:14:24.881Z,997.30
2023-03-22T05:15:24.843Z,997.33
2023-03-22T05:16:24.932Z,997.31
2023-03-22T05:17:24.813Z,997.25
2023-03-22T05:18:24.797Z,997.23
2023-03-22T05:19:24.810Z,997.25
2023-03-22T05:20:24.783Z,997.24
2023-03-22T05:21:24.738Z,997.28
2023-03-22T05:22:24.766Z,997.27
2023-03-22T05:23:24.736Z,997.25
2023-03-22T05:24:24.710Z,997.22
2023-03-22T05:25:24.713Z,997.23
2023-03-22T05:26:24.704Z,997.26
2023-03-22T05:27:24.673Z,997.20
2023-03-22T05:28:24.651Z,997.16
2023-03-22T05:29:24.640Z,997.18
2023-03-22T05:30:24.660Z,997.16
2023-03-22T05:31:24.697Z,997.14
2023-03-22T05:32:24.620Z,997.16
2023-03-22T05:33:24.582Z,997.14
2023-03-22T05:34:24.575Z,997.16
2023-03-22T05:35:24.601Z,997.15
2023-03-22T05:36:24.553Z,997.14
2023-03-22T05:37:24.556Z,997.16
2023-03-22T05:38:24.532Z,997.12
2023-03-22T05:39:24.543Z,997.08
2023-03-22T05:40:24.525Z,997.06
2023-03-22T05:41:24.508Z,997.02
2023-03-22T05:42:24.495Z,997.02
2023-03-22T05:43:24.454Z,997.02
2023-03-22T05:44:24.472Z,997.02
2023-03-22T05:45:24.442Z,997.09
2023-03-22T05:46:24.520Z,997.14
2023-03-22T05:47:24.412Z,997.19
2023-03-22T05:48:24.412Z,997.18
2023-03-22T05:49:24.383Z,997.14
2023-03-22T05:50:24.391Z,997.15
2023-03-22T05:51:24.353Z,997.12
2023-03-22T05:52:24.366Z,997.15
2023-03-22T05:53:24.326Z,997.23
2023-03-22T05:54:24.303Z,997.25
2023-03-22T05:55:24.293Z,997.25
2023-03-22T05:56:24.569Z,997.26
2023-03-22T05:57:24.306Z,997.27
2023-03-22T05:58:24.273Z,997.30
2023-03-22T05:59:24.254Z,997.25
2023-03-22T06:00:24.234Z,997.25
2023-03-22T06:01:24.239Z,997.27
2023-03-22T06:02:24.215Z,997.27
2023-03-22T06:03:24.217Z,997.24
2023-03-22T06:04:24.206Z,997.20
2023-03-22T06:05:24.187Z,997.16
2023-03-22T06:06:24.172Z,997.18
2023-03-22T06:07:24.156Z,997.16
2023-03-22T06:08:26.467Z,997.17
2023-03-22T06:09:24.113Z,997.17
2023-03-22T06:10:24.114Z,997.22
2023-03-22T06:11:24.093Z,997.19
2023-03-22T06:12:24.123Z,997.22
2023-03-22T06:13:24.115Z,997.24
2023-03-22T06:14:24.044Z,997.24
2023-03-22T06:15:24.062Z,997.21
2023-03-22T06:16:24.149Z,997.19
2023-03-22T06:17:24.033Z,997.27
2023-03-22T06:18:24.015Z,997.23
2023-03-22T06:19:23.974Z,997.25
2023-03-22T06:20:23.974Z,997.21
2023-03-22T06:21:23.953Z,997.24
2023-03-22T06:22:23.961Z,997.23
2023-03-22T06:23:23.944Z,997.22
2023-03-22T06:24:23.918Z,997.20
2023-03-22T06:25:23.915Z,997.19
2023-03-22T06:26:23.895Z,997.18
2023-03-22T06:27:23.883Z,997.16
2023-03-22T06:28:23.880Z,997.24
2023-03-22T06:29:23.847Z,997.20
2023-03-22T06:30:23.882Z,997.22
2023-03-22T06:31:23.810Z,997.21
2023-03-22T06:32:23.952Z,997.22
2023-03-22T06:33:23.778Z,997.26
2023-03-22T06:34:23.766Z,997.29
2023-03-22T06:35:23.782Z,997.29
2023-03-22T06:36:23.757Z,997.32
2023-03-22T06:37:23.765Z,997.33
2023-03-22T06:38:23.735Z,997.34
2023-03-22T06:39:23.715Z,997.31
2023-03-22T06:40:23.693Z,997.28
2023-03-22T06:41:23.671Z,997.32
2023-03-22T06:42:23.672Z,997.32
2023-03-22T06:43:23.641Z,997.38
2023-03-22T06:44:23.631Z,997.41
2023-03-22T06:45:23.627Z,997.35
2023-03-22T06:46:23.736Z,997.36
2023-03-22T06:47:23.623Z,997.36
2023-03-22T06:48:23.644Z,997.42
2023-03-22T06:49:23.559Z,997.40
2023-03-22T06:50:23.570Z,997.39
2023-03-22T06:51:23.539Z,997.38
2023-03-22T06:52:23.539Z,997.42
2023-03-22T06:53:23.515Z,997.43
2023-03-22T06:54:23.501Z,997.38
2023-03-22T06:55:23.511Z,997.40
2023-03-22T06:56:23.480Z,997.45
2023-03-22T06:57:23.501Z,997.45
2023-03-22T06:58:23.451Z,997.47
2023-03-22T06:59:23.434Z,997.44
2023-03-22T07:00:23.416Z,997.46
2023-03-22T07:01:23.503Z,997.41
2023-03-22T07:02:23.420Z,997.41
2023-03-22T07:03:23.376Z,997.37
2023-03-22T07:04:23.402Z,997.39
2023-03-22T07:05:23.359Z,997.41
2023-03-22T07:06:23.341Z,997.41
2023-03-22T07:07:23.356Z,997.45
2023-03-22T07:08:23.325Z,997.41
2023-03-22T07:09:23.303Z,997.37
2023-03-22T07:10:23.292Z,997.43
2023-03-22T07:11:23.362Z,997.45
2023-03-22T07:12:23.285Z,997.47
2023-03-22T07:13:23.251Z,997.40
2023-03-22T07:14:23.246Z,997.40
2023-03-22T07:15:23.227Z,997.39
2023-03-22T07:16:23.268Z,997.41
2023-03-22T07:17:23.200Z,997.40
2023-03-22T07:18:23.208Z,997.36
2023-03-22T07:19:23.291Z,997.33
2023-03-22T07:20:23.544Z,997.36
2023-03-22T07:21:23.158Z,997.42
2023-03-22T07:22:23.146Z,997.41
2023-03-22T07:23:23.130Z,997.42
2023-03-22T07:24:23.097Z,997.30
2023-03-22T07:25:23.079Z,997.39
2023-03-22T07:26:23.092Z,997.36
2023-03-22T07:27:23.135Z,997.38
2023-03-22T07:28:23.064Z,997.34
2023-03-22T07:29:23.057Z,997.35
2023-03-22T07:30:23.051Z,997.35
2023-03-22T07:31:23.044Z,997.38
2023-03-22T07:32:23.085Z,997.41
2023-03-22T07:33:23.030Z,997.36
2023-03-22T07:34:22.970Z,997.33
2023-03-22T07:35:25.529Z,997.28
2023-03-22T07:36:22.949Z,997.27
2023-03-22T07:37:23.198Z,997.26
2023-03-22T07:38:22.909Z,997.32
2023-03-22T07:39:22.934Z,997.32
2023-03-22T07:40:22.892Z,997.21
2023-03-22T07:41:22.884Z,997.24
2023-03-22T07:42:22.893Z,997.18
2023-03-22T07:43:22.852Z,997.19
2023-03-22T07:44:22.835Z,997.10
2023-03-22T07:45:22.889Z,997.16
2023-03-22T07:46:22.836Z,997.20
2023-03-22T07:47:39.467Z,997.18
2023-03-22T07:48:23.822Z,997.13
2023-03-22T07:49:22.781Z,997.13
2023-03-22T07:50:22.780Z,997.06
2023-03-22T07:51:22.754Z,997.07
2023-03-22T07:52:22.760Z,997.06
2023-03-22T07:53:22.721Z,997.07
2023-03-22T07:54:32.885Z,997.04
2023-03-22T07:55:23.713Z,997.10
2023-03-22T07:56:22.702Z,997.13
2023-03-22T07:57:22.679Z,997.10
2023-03-22T07:58:22.672Z,997.10
2023-03-22T07:59:22.646Z,997.16
2023-03-22T08:00:22.648Z,997.13
2023-03-22T08:01:22.632Z,997.11
2023-03-22T08:02:22.690Z,997.17
2023-03-22T08:03:22.632Z,997.19
2023-03-22T08:04:22.621Z,997.17
2023-03-22T08:05:22.613Z,997.13
2023-03-22T08:06:22.551Z,997.18
2023-03-22T08:07:22.649Z,997.16
2023-03-22T08:08:22.530Z,997.14
2023-03-22T08:09:22.533Z,997.09
2023-03-22T08:10:22.595Z,997.10
2023-03-22T08:11:22.497Z,997.07
2023-03-22T08:12:22.486Z,997.11
2023-03-22T08:13:22.462Z,997.20
2023-03-22T08:14:34.031Z,997.19
2023-03-22T08:15:23.590Z,997.17
2023-03-22T08:16:22.415Z,997.15
2023-03-22T08:17:22.414Z,997.08
2023-03-22T08:18:22.404Z,997.19
2023-03-22T08:19:22.372Z,997.20
2023-03-22T08:20:22.381Z,997.19
2023-03-22T08:21:22.366Z,997.14
2023-03-22T08:22:22.374Z,997.13
2023-03-22T08:23:31.719Z,997.10
2023-03-22T08:24:23.305Z,997.12
2023-03-22T08:25:22.371Z,997.16
2023-03-22T08:26:22.284Z,997.15
2023-03-22T08:27:22.317Z,997.15
2023-03-22T08:28:22.264Z,997.13
2023-03-22T08:29:22.260Z,997.10
2023-03-22T08:30:22.247Z,997.12
2023-03-22T08:31:22.286Z,997.08
2023-03-22T08:32:22.205Z,997.01
2023-03-22T08:33:22.223Z,997.06
2023-03-22T08:34:22.206Z,997.09
2023-03-22T08:35:22.223Z,997.01
2023-03-22T08:36:22.150Z,997.05
2023-03-22T08:37:22.208Z,997.01
2023-03-22T08:38:22.126Z,997.04
2023-03-22T08:39:22.127Z,997.02
2023-03-22T08:40:22.159Z,997.04
2023-03-22T08:41:22.078Z,997.09
2023-03-22T08:42:22.080Z,997.03
2023-03-22T08:43:22.056Z,997.04
2023-03-22T08:44:22.071Z,997.04
2023-03-22T08:45:22.093Z,997.03
2023-03-22T08:46:22.100Z,997.08
2023-03-22T08:47:22.105Z,997.09
2023-03-22T08:48:22.070Z,997.08
2023-03-22T08:49:21.987Z,997.11
2023-03-22T08:50:21.965Z,997.04
2023-03-22T08:51:21.945Z,997.02
2023-03-22T08:52:21.933Z,997.01
2023-03-22T08:53:21.915Z,996.92
2023-03-22T08:54:21.920Z,996.96
2023-03-22T08:55:21.930Z,996.91
2023-03-22T08:56:21.881Z,996.89
2023-03-22T08:57:21.867Z,996.91
2023-03-22T08:58:21.858Z,996.88
2023-03-22T08:59:21.846Z,996.86
2023-03-22T09:00:21.846Z,996.80
2023-03-22T09:01:21.900Z,996.79
2023-03-22T09:02:21.843Z,996.76
2023-03-22T09:03:21.775Z,996.84
2023-03-22T09:04:21.804Z,996.80
2023-03-22T09:05:21.761Z,996.79
2023-03-22T09:06:21.764Z,996.67
2023-03-22T09:07:21.733Z,996.71
2023-03-22T09:08:21.733Z,996.74
2023-03-22T09:09:21.718Z,996.72
2023-03-22T09:10:21.674Z,996.68
2023-03-22T09:11:21.705Z,996.72
2023-03-22T09:12:21.654Z,996.70
2023-03-22T09:13:21.655Z,996.65
2023-03-22T09:14:21.634Z,996.61
2023-03-22T09:15:21.615Z,996.56
2023-03-22T09:16:21.638Z,996.57
2023-03-22T09:17:22.569Z,996.57
2023-03-22T09:18:21.590Z,996.60
2023-03-22T09:19:21.586Z,996.62
2023-03-22T09:20:21.551Z,996.58
2023-03-22T09:21:21.561Z,996.61
2023-03-22T09:22:21.529Z,996.55
2023-03-22T09:23:21.510Z,996.50
2023-03-22T09:24:21.503Z,996.52
2023-03-22T09:25:21.506Z,996.51
2023-03-22T09:26:21.492Z,996.53
2023-03-22T09:27:21.465Z,996.50
2023-03-22T09:28:21.516Z,996.43
2023-03-22T09:29:21.435Z,996.41
2023-03-22T09:30:21.425Z,996.40
2023-03-22T09:31:21.435Z,996.37
2023-03-22T09:32:21.407Z,996.43
2023-03-22T09:33:21.393Z,996.41
2023-03-22T09:34:21.360Z,996.39
2023-03-22T09:35:21.377Z,996.37
2023-03-22T09:36:21.337Z,996.36
2023-03-22T09:37:21.540Z,996.36
2023-03-22T09:38:21.308Z,996.29
2023-03-22T09:39:21.303Z,996.32
2023-03-22T09:40:21.276Z,996.31
2023-03-22T09:41:21.290Z,996.25
2023-03-22T09:42:21.266Z,996.27
2023-03-22T09:43:21.282Z,996.26
2023-03-22T09:44:21.223Z,996.28
2023-03-22T09:45:21.228Z,996.31
2023-03-22T09:46:21.248Z,996.29
2023-03-22T09:47:21.214Z,996.26
2023-03-22T09:48:21.261Z,996.32
2023-03-22T09:49:21.165Z,996.30
2023-03-22T09:50:21.311Z,996.32
2023-03-22T09:51:21.137Z,996.32
2023-03-22T09:52:21.157Z,996.29
2023-03-22T09:53:21.121Z,996.25
2023-03-22T09:54:21.106Z,996.22
2023-03-22T09:55:21.091Z,996.24
2023-03-22T09:56:21.081Z,996.23
2023-03-22T09:57:21.066Z,996.20
2023-03-22T09:58:21.063Z,996.13
2023-03-22T09:59:21.044Z,996.14
2023-03-22T10:00:21.165Z,996.11
2023-03-22T10:01:21.308Z,996.14
2023-03-22T10:02:21.069Z,996.06
2023-03-22T10:03:20.989Z,996.07
2023-03-22T10:04:21.046Z,996.04
2023-03-22T10:05:20.978Z,996.03
2023-03-22T10:06:20.925Z,996.00
2023-03-22T10:07:20.926Z,996.00
2023-03-22T10:08:20.916Z,995.95
2023-03-22T10:09:20.896Z,996.03
2023-03-22T10:10:20.965Z,996.03
2023-03-22T10:11:20.902Z,995.99
2023-03-22T10:12:20.858Z,996.05
2023-03-22T10:13:20.840Z,996.06
2023-03-22T10:14:20.830Z,996.09
2023-03-22T10:15:20.849Z,996.11
2023-03-22T10:16:20.879Z,995.92
2023-03-22T10:17:20.824Z,995.97
2023-03-22T10:18:20.765Z,995.99
2023-03-22T10:19:20.786Z,995.99
2023-03-22T10:20:20.766Z,995.99
2023-03-22T10:21:20.739Z,995.97
2023-03-22T10:22:20.728Z,995.93
2023-03-22T10:23:20.714Z,996.00
2023-03-22T10:24:20.703Z,995.96
2023-03-22T10:25:20.713Z,995.94
2023-03-22T10:26:20.657Z,995.88
2023-03-22T10:27:20.659Z,995.97
2023-03-22T10:28:20.666Z,995.89
2023-03-22T10:29:20.637Z,995.85
2023-03-22T10:30:20.603Z,995.84
2023-03-22T10:31:20.643Z,995.79
2023-03-22T10:32:20.599Z,995.75
2023-03-22T10:33:20.576Z,995.79
2023-03-22T10:34:20.584Z,995.77
2023-03-22T10:35:20.575Z,995.76
2023-03-22T10:36:20.530Z,995.66
2023-03-22T10:37:20.566Z,995.69
2023-03-22T10:38:20.517Z,995.57
2023-03-22T10:39:20.497Z,995.58
2023-03-22T10:40:20.497Z,995.57
2023-03-22T10:41:20.462Z,995.60
2023-03-22T10:42:20.449Z,995.60
2023-03-22T10:43:20.448Z,995.57
2023-03-22T10:44:20.444Z,995.60
2023-03-22T10:45:20.417Z,995.54
2023-03-22T10:46:20.441Z,995.51
2023-03-22T10:47:20.437Z,995.50
2023-03-22T10:48:20.438Z,995.48
2023-03-22T10:49:20.361Z,995.43
2023-03-22T10:50:20.341Z,995.47
2023-03-22T10:51:20.332Z,995.41
2023-03-22T10:52:20.328Z,995.41
2023-03-22T10:53:20.308Z,995.46
2023-03-22T10:54:20.296Z,995.45
2023-03-22T10:55:20.283Z,995.37
2023-03-22T10:56:20.286Z,995.42
2023-03-22T10:57:20.300Z,995.41
2023-03-22T10:58:20.244Z,995.44
2023-03-22T10:59:20.224Z,995.42
2023-03-22T11:00:20.225Z,995.41
2023-03-22T11:01:20.339Z,995.38
2023-03-22T11:02:20.406Z,995.42
2023-03-22T11:03:20.175Z,995.45
2023-03-22T11:04:20.184Z,995.46
2023-03-22T11:05:20.147Z,995.41
2023-03-22T11:06:20.141Z,995.42
2023-03-22T11:07:20.135Z,995.43
2023-03-22T11:08:20.114Z,995.36
2023-03-22T11:09:20.097Z,995.35
2023-03-22T11:10:20.122Z,995.33
2023-03-22T11:11:20.083Z,995.31
2023-03-22T11:12:20.064Z,995.34
2023-03-22T11:13:20.055Z,995.28
2023-03-22T11:14:20.089Z,995.30
2023-03-22T11:15:20.016Z,995.35
2023-03-22T11:16:20.012Z,995.29
2023-03-22T11:17:20.009Z,995.37
2023-03-22T11:18:19.967Z,995.34
2023-03-22T11:19:19.964Z,995.29
2023-03-22T11:20:19.989Z,995.26
2023-03-22T11:21:19.934Z,995.28
2023-03-22T11:22:19.926Z,995.25
2023-03-22T11:23:19.915Z,995.21
2023-03-22T11:24:19.893Z,995.25
2023-03-22T11:25:19.884Z,995.19
2023-03-22T11:26:19.882Z,995.19
2023-03-22T11:27:19.860Z,995.11
2023-03-22T11:28:19.850Z,995.08
2023-03-22T11:29:19.827Z,995.09
2023-03-22T11:30:19.811Z,995.05
2023-03-22T11:31:19.860Z,995.04
2023-03-22T11:32:19.865Z,995.09
2023-03-22T11:33:19.777Z,995.05
2023-03-22T11:34:19.780Z,995.10
2023-03-22T11:35:19.743Z,995.13
2023-03-22T11:36:19.747Z,995.08
2023-03-22T11:37:19.734Z,995.08
2023-03-22T11:38:19.987Z,995.06
2023-03-22T11:39:19.704Z,995.09
2023-03-22T11:40:19.714Z,995.05
2023-03-22T11:41:20.148Z,995.04
2023-03-22T11:42:19.669Z,994.97
2023-03-22T11:43:19.653Z,995.00
2023-03-22T11:44:19.635Z,995.05
2023-03-22T11:45:19.617Z,995.08
2023-03-22T11:46:19.698Z,995.05
2023-03-22T11:47:19.616Z,995.09
2023-03-22T11:48:19.664Z,995.10
2023-03-22T11:49:19.566Z,995.08
2023-03-22T11:50:19.566Z,995.03
2023-03-22T11:51:19.553Z,994.96
2023-03-22T11:52:19.538Z,995.08
2023-03-22T11:53:19.528Z,995.02
2023-03-22T11:54:19.546Z,994.95
2023-03-22T11:55:19.499Z,995.00
2023-03-22T11:56:19.476Z,995.03
2023-03-22T11:57:19.457Z,995.01
2023-03-22T11:58:19.446Z,995.00
2023-03-22T11:59:19.442Z,994.93
2023-03-22T12:00:19.456Z,994.93
2023-03-22T12:01:19.416Z,994.88
2023-03-22T12:02:19.480Z,994.83
2023-03-22T12:03:19.494Z,994.82
2023-03-22T12:04:19.380Z,994.83
2023-03-22T12:05:19.442Z,994.84
2023-03-22T12:06:19.507Z,994.84
2023-03-22T12:07:19.316Z,994.78
2023-03-22T12:08:19.335Z,994.77
2023-03-22T12:09:19.290Z,994.68
2023-03-22T12:10:19.295Z,994.75
2023-03-22T12:11:19.272Z,994.68
2023-03-22T12:12:19.293Z,994.69
2023-03-22T12:13:19.265Z,994.62
2023-03-22T12:14:19.228Z,994.60
2023-03-22T12:15:19.225Z,994.64
2023-03-22T12:16:19.242Z,994.69
2023-03-22T12:17:19.175Z,994.68
2023-03-22T12:18:19.278Z,994.70
2023-03-22T12:19:19.153Z,994.70
2023-03-22T12:20:19.177Z,994.70
2023-03-22T12:21:19.127Z,994.71
2023-03-22T12:22:19.121Z,994.66
2023-03-22T12:23:19.117Z,994.66
2023-03-22T12:24:19.100Z,994.70
2023-03-22T12:25:19.081Z,994.60
2023-03-22T12:26:19.086Z,994.61
2023-03-22T12:27:19.080Z,994.64
2023-03-22T12:28:19.058Z,994.60